createdAt,value
2017-11-05T00:01:40.576Z,41.07
2017-11-05T00:06:44.530Z,37.37
2017-11-05T00:11:47.783Z,37.87
2017-11-05T00:16:50.960Z,40.03
2017-11-05T00:21:54.158Z,42.70
2017-11-05T00:26:57.365Z,39.07
2017-11-05T00:32:00.531Z,39.57
2017-11-05T00:37:04.482Z,38.60
2017-11-05T00:42:07.749Z,39.80
2017-11-05T00:47:10.936Z,33.70
2017-11-05T00:52:14.120Z,35.90
2017-11-05T00:57:17.327Z,35.80
2017-11-05T01:02:20.606Z,36.03
2017-11-05T01:07:24.558Z,35.70
2017-11-05T01:12:27.752Z,33.53
2017-11-05T01:17:30.943Z,36.67
2017-11-05T01:22:34.966Z,34.73
2017-11-05T01:27:38.931Z,34.37
2017-11-05T01:32:42.123Z,34.27
2017-11-05T01:37:45.318Z,34.30
2017-11-05T01:42:48.507Z,33.00
2017-11-05T01:47:52.474Z,37.03
2017-11-05T01:52:55.667Z,36.77
2017-11-05T01:57:58.911Z,37.50
2017-11-05T02:03:02.097Z,38.97
2017-11-05T02:08:05.264Z,38.00
2017-11-05T02:13:08.453Z,38.40
2017-11-05T02:18:12.402Z,42.70
2017-11-05T02:23:15.585Z,43.73
2017-11-05T02:28:19.530Z,51.03
2017-11-05T02:33:22.722Z,47.00
2017-11-05T02:38:26.671Z,54.07
2017-11-05T02:43:29.928Z,53.47
2017-11-05T02:48:33.144Z,50.27
2017-11-05T02:53:37.209Z,44.33
2017-11-05T02:58:40.356Z,48.90
2017-11-05T03:03:44.211Z,43.97
2017-11-05T03:08:48.188Z,47.93
2017-11-05T03:13:51.329Z,51.67
2017-11-05T03:18:55.312Z,51.80
2017-11-05T03:23:58.535Z,58.43
2017-11-05T03:29:01.710Z,55.53
2017-11-05T03:34:04.884Z,54.03
2017-11-05T03:39:08.846Z,55.60
2017-11-05T03:44:12.147Z,57.03
2017-11-05T03:49:15.354Z,59.27
2017-11-05T03:54:18.553Z,53.80
2017-11-05T03:59:21.722Z,51.30
2017-11-05T04:04:25.684Z,56.67
2017-11-05T04:09:28.862Z,54.87
2017-11-05T04:14:32.779Z,56.40
2017-11-05T04:19:36.724Z,50.47
2017-11-05T04:24:40.099Z,53.20
2017-11-05T04:29:43.297Z,49.50
2017-11-05T04:34:46.470Z,48.33
2017-11-05T04:39:49.717Z,46.90
2017-11-05T04:44:53.869Z,44.10
2017-11-05T04:49:57.817Z,44.93
2017-11-05T04:55:00.966Z,43.40
2017-11-05T05:00:04.291Z,44.50
2017-11-05T05:05:07.523Z,47.87
2017-11-05T05:10:10.758Z,43.50
2017-11-05T05:15:15.354Z,44.37
2017-11-05T05:20:19.306Z,45.27
2017-11-05T05:25:22.625Z,46.37
2017-11-05T05:30:25.822Z,44.73
2017-11-05T05:35:29.058Z,44.00
2017-11-05T05:40:32.246Z,47.73
2017-11-05T05:45:35.460Z,44.57
2017-11-05T05:50:38.641Z,46.57
2017-11-05T05:55:41.817Z,45.03
2017-11-05T06:00:44.975Z,48.00
2017-11-05T06:05:48.174Z,45.47
2017-11-05T06:10:51.361Z,44.40
2017-11-05T06:15:54.673Z,42.83
2017-11-05T06:20:58.605Z,44.83
2017-11-05T06:26:02.714Z,43.80
2017-11-05T06:31:06.694Z,41.50
2017-11-05T06:36:09.872Z,40.27
2017-11-05T06:41:13.930Z,38.53
2017-11-05T06:46:18.110Z,39.00
2017-11-05T06:51:21.453Z,40.97
2017-11-05T06:56:24.650Z,36.37
2017-11-05T07:01:27.857Z,34.60
2017-11-05T07:06:31.023Z,36.90
2017-11-05T07:11:34.992Z,32.23
2017-11-05T07:16:38.164Z,32.23
2017-11-05T07:21:41.356Z,31.23
2017-11-05T07:26:45.299Z,31.77
2017-11-05T07:31:48.518Z,31.40
2017-11-05T07:36:51.691Z,28.87
2017-11-05T07:41:55.659Z,27.23
2017-11-05T07:46:58.814Z,26.80
2017-11-05T07:52:02.030Z,24.85
2017-11-05T07:57:05.983Z,24.27
2017-11-05T08:02:09.199Z,25.20
2017-11-05T08:07:12.505Z,23.40
2017-11-05T08:12:15.681Z,25.30
2017-11-05T08:17:19.759Z,23.80
2017-11-05T08:22:22.962Z,23.50
2017-11-05T08:27:26.258Z,26.80
2017-11-05T08:32:29.443Z,10.87
2017-11-05T08:37:32.810Z,1.90
2017-11-05T08:42:36.032Z,1.37
2017-11-05T08:47:39.993Z,1.50
2017-11-05T08:52:43.183Z,1.50
2017-11-05T08:57:46.356Z,1.80
2017-11-05T09:02:49.524Z,1.87
2017-11-05T09:07:52.677Z,1.63
2017-11-05T09:12:56.619Z,1.40
2017-11-05T09:18:00.562Z,2.07
2017-11-05T09:23:03.800Z,7.33
2017-11-05T09:28:07.059Z,2.03
2017-11-05T09:33:10.393Z,2.20
2017-11-05T09:38:13.564Z,1.87
2017-11-05T09:43:17.522Z,1.80
2017-11-05T09:48:20.695Z,1.70
2017-11-05T09:53:24.648Z,2.40
2017-11-05T09:58:27.849Z,2.10
2017-11-05T10:03:31.059Z,1.70
2017-11-05T10:08:34.243Z,2.20
2017-11-05T10:13:38.185Z,2.60
2017-11-05T10:18:41.368Z,1.97
2017-11-05T10:23:45.381Z,1.37
2017-11-05T10:28:48.756Z,1.50
2017-11-05T10:33:52.016Z,2.53
2017-11-05T10:38:55.969Z,3.23
2017-11-05T10:43:59.168Z,2.70
2017-11-05T10:49:02.308Z,3.40
2017-11-05T10:54:05.471Z,3.70
2017-11-05T10:59:08.760Z,4.90
2017-11-05T11:04:13.098Z,5.50
2017-11-05T11:09:17.064Z,3.67
2017-11-05T11:14:20.276Z,3.27
2017-11-05T11:19:23.470Z,3.30
2017-11-05T11:24:27.023Z,3.90
2017-11-05T11:29:30.626Z,4.90
2017-11-05T11:34:33.831Z,4.10
2017-11-05T11:39:37.056Z,4.20
2017-11-05T11:44:40.438Z,4.80
2017-11-05T11:49:43.628Z,4.40
2017-11-05T11:54:46.816Z,3.10
2017-11-05T11:59:50.015Z,3.80
2017-11-05T12:04:53.193Z,4.20
2017-11-05T12:09:56.355Z,4.60
2017-11-05T12:14:59.620Z,3.77
2017-11-05T12:20:03.616Z,3.77
2017-11-05T12:25:06.803Z,3.70
2017-11-05T12:30:09.954Z,2.97
2017-11-05T12:35:13.861Z,2.80
2017-11-05T12:40:17.110Z,5.53
2017-11-05T12:45:20.332Z,6.47
2017-11-05T12:50:23.550Z,3.60
2017-11-05T12:55:26.879Z,2.97
2017-11-05T13:00:30.061Z,4.20
2017-11-05T13:05:33.243Z,2.37
2017-11-05T13:10:36.424Z,3.57
2017-11-05T13:15:40.405Z,3.17
2017-11-05T13:20:43.616Z,5.30
2017-11-05T13:25:46.817Z,6.20
2017-11-05T13:30:50.050Z,6.03
2017-11-05T13:35:53.272Z,6.63
2017-11-05T13:40:56.484Z,6.80
2017-11-05T13:45:59.658Z,7.67
2017-11-05T13:51:02.916Z,11.17
2017-11-05T13:56:06.873Z,7.77
2017-11-05T14:01:10.054Z,6.43
2017-11-05T14:06:13.313Z,7.27
2017-11-05T14:11:16.496Z,7.30
2017-11-05T14:16:19.729Z,7.73
2017-11-05T14:21:22.908Z,6.20
2017-11-05T14:26:26.144Z,6.90
2017-11-05T14:31:29.345Z,6.80
2017-11-05T14:36:32.542Z,8.73
2017-11-05T14:41:35.739Z,6.60
2017-11-05T14:46:38.939Z,6.10
2017-11-05T14:51:42.399Z,6.80
2017-11-05T14:56:46.372Z,7.47
2017-11-05T15:01:49.964Z,8.90
2017-11-05T15:06:53.231Z,14.73
2017-11-05T15:11:56.779Z,6.50
2017-11-05T15:17:00.743Z,7.27
2017-11-05T15:22:03.924Z,7.43
2017-11-05T15:27:07.155Z,9.93
2017-11-05T15:32:10.431Z,19.80
2017-11-05T15:37:13.637Z,11.77
2017-11-05T15:42:16.787Z,6.23
2017-11-05T15:47:19.997Z,6.33
2017-11-05T15:52:23.175Z,6.90
2017-11-05T15:57:26.358Z,8.63
2017-11-05T16:02:30.328Z,8.27
2017-11-05T16:07:33.513Z,9.30
2017-11-05T16:12:36.748Z,8.40
2017-11-05T16:17:39.900Z,8.60
2017-11-05T16:22:43.075Z,8.83
2017-11-05T16:27:46.275Z,8.67
2017-11-05T16:32:49.514Z,12.70
2017-11-05T16:37:52.758Z,9.97
2017-11-05T16:42:55.937Z,8.50
2017-11-05T16:47:59.145Z,8.37
2017-11-05T16:53:02.392Z,12.33
2017-11-05T16:58:05.597Z,11.67
2017-11-05T17:03:08.774Z,13.27
2017-11-05T17:08:11.964Z,11.00
2017-11-05T17:13:15.201Z,13.67
2017-11-05T17:18:18.396Z,14.80
2017-11-05T17:23:21.608Z,14.10
2017-11-05T17:28:24.779Z,8.20
2017-11-05T17:33:28.723Z,9.60
2017-11-05T17:38:31.948Z,8.30
2017-11-05T17:43:35.160Z,8.20
2017-11-05T17:48:38.363Z,7.27
2017-11-05T17:53:41.710Z,6.43
2017-11-05T17:58:44.927Z,5.17
2017-11-05T18:03:48.865Z,9.17
2017-11-05T18:08:52.826Z,5.73
2017-11-05T18:13:56.053Z,5.53
2017-11-05T18:18:59.276Z,5.07
2017-11-05T18:24:02.467Z,5.40
2017-11-05T18:29:05.667Z,5.97
2017-11-05T18:34:08.910Z,5.93
2017-11-05T18:39:12.165Z,4.93
2017-11-05T18:44:15.370Z,5.70
2017-11-05T18:49:18.563Z,5.30
2017-11-05T18:54:21.751Z,4.77
2017-11-05T18:59:25.739Z,4.30
2017-11-05T19:04:29.045Z,4.43
2017-11-05T19:09:32.254Z,4.90
2017-11-05T19:14:35.425Z,4.85
2017-11-05T19:19:38.759Z,5.20
2017-11-05T19:24:42.010Z,4.67
2017-11-05T19:29:45.955Z,4.97
2017-11-05T19:34:49.176Z,6.23
2017-11-05T19:39:52.364Z,5.33
2017-11-05T19:44:55.559Z,5.30
2017-11-05T19:49:58.782Z,6.03
2017-11-05T19:55:01.995Z,6.40
2017-11-05T20:00:05.171Z,7.97
2017-11-05T20:05:09.180Z,8.37
2017-11-05T20:10:12.344Z,7.53
2017-11-05T20:15:15.631Z,8.30
2017-11-05T20:20:18.837Z,8.07
2017-11-05T20:25:22.045Z,7.80
2017-11-05T20:30:25.236Z,9.90
2017-11-05T20:35:28.527Z,11.07
2017-11-05T20:40:32.503Z,7.03
2017-11-05T20:45:35.708Z,7.30
2017-11-05T20:50:38.924Z,7.33
2017-11-05T20:55:42.181Z,7.33
2017-11-05T21:00:46.103Z,7.43
2017-11-05T21:05:50.072Z,8.10
2017-11-05T21:10:53.315Z,7.90
2017-11-05T21:15:56.536Z,8.37
2017-11-05T21:20:59.762Z,8.70
2017-11-05T21:26:02.980Z,8.05
2017-11-05T21:31:06.189Z,8.87
2017-11-05T21:36:09.413Z,8.37
2017-11-05T21:41:12.613Z,10.17
2017-11-05T21:46:15.803Z,9.47
2017-11-05T21:51:19.075Z,10.30
2017-11-05T21:56:22.268Z,9.90
2017-11-05T22:01:25.474Z,8.70
2017-11-05T22:06:28.788Z,9.43
2017-11-05T22:11:32.008Z,10.13
2017-11-05T22:16:36.043Z,10.47
2017-11-05T22:21:39.998Z,10.03
2017-11-05T22:26:43.205Z,11.00
2017-11-05T22:31:46.415Z,11.40
2017-11-05T22:36:49.619Z,11.50
2017-11-05T22:41:52.830Z,12.03
2017-11-05T22:46:56.057Z,12.37
2017-11-05T22:51:59.378Z,10.90
2017-11-05T22:57:02.642Z,11.07
2017-11-05T23:02:06.100Z,11.23
2017-11-05T23:07:09.432Z,12.23
2017-11-05T23:12:12.829Z,9.43
2017-11-05T23:17:16.311Z,10.80
2017-11-05T23:22:19.517Z,10.60
2017-11-05T23:27:22.822Z,11.30
2017-11-05T23:32:26.024Z,10.43
2017-11-05T23:37:29.226Z,11.43
2017-11-05T23:42:32.495Z,12.90
2017-11-05T23:47:36.434Z,13.60
2017-11-05T23:52:39.622Z,13.60
2017-11-05T23:57:42.922Z,13.50
